Time;durP1;ratioP1;P1;durP2;ratioP2;P2;SDS_P1;SDS_P2;PMS_P1;PMS_P2;Temp;Humidity;BMP_temperature;BMP_pressure;BME280_temperature;BME280_humidity;BME280_pressure;Samples;Min_cycle;Max_cycle;Signal;HPM_P1;HPM_P2
2021/11/03 00:02:07;;;;;;;1999.90;999.90;;;;;;;4.86;100.00;95337.16;5049751;28;20266;-74
2021/11/03 00:04:36;;;;;;;1999.90;999.90;;;;;;;4.83;100.00;95340.25;5049621;28;20585;-74
2021/11/03 00:07:04;;;;;;;1999.90;999.90;;;;;;;4.84;100.00;95348.72;5053212;28;20744;-74
2021/11/03 00:09:31;;;;;;;1999.90;999.90;;;;;;;4.81;100.00;95352.59;5053257;28;20229;-74
2021/11/03 00:11:59;;;;;;;1999.90;999.90;;;;;;;4.78;100.00;95353.13;5053095;28;20922;-74
2021/11/03 00:14:26;;;;;;;1999.90;999.90;;;;;;;4.77;100.00;95367.03;5053167;28;20193;-74
2021/11/03 00:16:55;;;;;;;1999.90;999.90;;;;;;;4.83;100.00;95366.00;5053194;28;20205;-75
2021/11/03 00:19:22;;;;;;;1999.90;999.90;;;;;;;4.86;100.00;95368.03;5053495;28;20638;-74
2021/11/03 00:21:49;;;;;;;1999.90;999.90;;;;;;;4.73;100.00;95376.31;5053106;28;20205;-74
2021/11/03 00:24:16;;;;;;;1999.90;999.90;;;;;;;4.68;100.00;95374.47;5052983;28;20720;-75
2021/11/03 00:26:43;;;;;;;1999.90;999.90;;;;;;;4.73;100.00;95378.88;5053259;28;20209;-74
2021/11/03 00:29:10;;;;;;;1999.90;999.90;;;;;;;4.80;100.00;95374.22;5053018;28;20212;-74
2021/11/03 00:31:37;;;;;;;1999.90;999.90;;;;;;;4.84;100.00;95377.03;5052926;28;20604;-74
2021/11/03 00:34:06;;;;;;;1999.90;999.90;;;;;;;4.82;100.00;95363.69;5052895;28;20199;-74
2021/11/03 00:36:33;;;;;;;1999.90;999.90;;;;;;;4.87;100.00;95369.59;5052850;28;20193;-74
2021/11/03 00:39:00;;;;;;;1999.90;999.90;;;;;;;4.84;100.00;95380.38;5052639;28;20204;-74
2021/11/03 00:41:28;;;;;;;1999.90;999.90;;;;;;;4.87;100.00;95377.31;5052821;28;20205;-74
2021/11/03 00:43:55;;;;;;;1999.90;999.90;;;;;;;4.86;100.00;95388.63;5052883;28;20774;-74
2021/11/03 00:46:22;;;;;;;1999.90;999.90;;;;;;;4.86;100.00;95385.28;5052679;28;20254;-74
2021/11/03 00:48:49;;;;;;;1999.90;999.90;;;;;;;4.87;100.00;95386.84;5052591;28;20204;-74
2021/11/03 00:51:17;;;;;;;1999.90;999.90;;;;;;;4.83;100.00;95386.59;5052422;28;20677;-74
2021/11/03 00:53:45;;;;;;;1999.90;999.90;;;;;;;4.87;100.00;95382.47;5052406;28;20194;-74
2021/11/03 00:56:12;;;;;;;1999.90;999.90;;;;;;;4.89;100.00;95385.53;5052350;28;20197;-74
2021/11/03 00:58:39;;;;;;;1999.90;999.90;;;;;;;4.88;100.00;95389.13;5051884;28;20229;-74
2021/11/03 01:01:06;;;;;;;1999.90;999.90;;;;;;;4.97;100.00;95384.25;5052604;28;20201;-74
2021/11/03 01:03:34;;;;;;;1999.90;999.90;;;;;;;5.05;100.00;95384.50;5052201;28;20213;-75
2021/11/03 01:06:01;;;;;;;1999.90;999.90;;;;;;;5.10;100.00;95391.44;5052571;28;20201;-74
2021/11/03 01:08:29;;;;;;;1999.90;999.90;;;;;;;5.20;100.00;95392.19;5052033;28;20685;-75
2021/11/03 01:10:56;;;;;;;1999.90;999.90;;;;;;;5.23;100.00;95390.88;5052601;28;20612;-74
2021/11/03 01:13:25;;;;;;;1999.90;999.90;;;;;;;5.28;100.00;95410.72;5051206;28;20221;-74
2021/11/03 01:15:57;;;;;;;1999.90;999.90;;;;;;;5.19;100.00;95407.88;5052050;28;20229;-74
2021/11/03 01:18:24;;;;;;;1999.90;999.90;;;;;;;5.18;100.00;95406.38;5051656;28;20258;-74
2021/11/03 01:20:51;;;;;;;1999.90;999.90;;;;;;;5.12;100.00;95410.75;5052306;28;20201;-74
2021/11/03 01:23:18;;;;;;;1999.90;999.90;;;;;;;5.13;100.00;95408.94;5052244;28;20284;-74
2021/11/03 01:25:46;;;;;;;1999.90;999.90;;;;;;;5.06;100.00;95419.50;5052067;28;20220;-74
2021/11/03 01:28:14;;;;;;;1999.90;999.90;;;;;;;5.09;100.00;95418.22;5051782;28;20197;-74
2021/11/03 01:30:41;;;;;;;1999.90;999.90;;;;;;;5.12;100.00;95421.06;5051814;28;20197;-74
2021/11/03 01:33:08;;;;;;;1999.90;999.90;;;;;;;5.08;100.00;95432.88;5051975;28;20208;-74
2021/11/03 01:35:35;;;;;;;1999.90;999.90;;;;;;;5.03;100.00;95430.31;5052128;28;20205;-74
2021/11/03 01:38:02;;;;;;;1999.90;999.90;;;;;;;5.15;100.00;95432.63;5051948;28;20736;-74
2021/11/03 01:40:32;;;;;;;1999.90;999.90;;;;;;;5.25;100.00;95434.41;5051935;28;20270;-74
2021/11/03 01:43:01;;;;;;;1999.90;999.90;;;;;;;5.24;100.00;95445.75;5051623;28;20182;-74
2021/11/03 01:45:29;;;;;;;1999.90;999.90;;;;;;;5.28;100.00;95439.06;5051439;28;20233;-75
2021/11/03 01:47:58;;;;;;;1999.90;999.90;;;;;;;5.20;100.00;95443.69;5052082;28;20679;-74
2021/11/03 01:50:31;;;;;;;1999.90;999.90;;;;;;;5.31;100.00;95439.31;5051794;28;20203;-74
2021/11/03 01:53:05;;;;;;;1999.90;999.90;;;;;;;5.42;100.00;95445.22;5051818;28;20189;-75
2021/11/03 01:55:34;;;;;;;1999.90;999.90;;;;;;;5.48;100.00;95449.31;5051387;28;20184;-74
2021/11/03 01:58:08;;;;;;;1999.90;999.90;;;;;;;5.45;100.00;95452.41;5051582;28;20662;-74
2021/11/03 02:00:41;;;;;;;1999.90;999.90;;;;;;;5.55;100.00;95460.13;5051323;28;20649;-74
2021/11/03 02:03:14;;;;;;;1999.90;999.90;;;;;;;5.49;100.00;95451.63;5051154;28;20711;-74
2021/11/03 02:05:44;;;;;;;1999.90;999.90;;;;;;;5.46;100.00;95452.16;5051361;28;20327;-74
2021/11/03 02:08:11;;;;;;;1999.90;999.90;;;;;;;5.48;100.00;95464.78;5051448;28;20181;-74
2021/11/03 02:10:39;;;;;;;1999.90;999.90;;;;;;;5.51;100.00;95464.25;5050985;28;20189;-74
2021/11/03 02:13:10;;;;;;;1999.90;999.90;;;;;;;5.55;100.00;95460.88;5050798;28;20247;-75
2021/11/03 02:15:38;;;;;;;1999.90;999.90;;;;;;;5.49;100.00;95471.47;5050990;28;20216;-74
2021/11/03 02:18:07;;;;;;;1999.90;999.90;;;;;;;5.50;100.00;95471.22;5051192;28;20288;-74
2021/11/03 02:20:34;;;;;;;1999.90;999.90;;;;;;;5.54;100.00;95471.44;5050763;28;20288;-74
2021/11/03 02:23:14;;;;;;;1999.90;999.90;;;;;;;5.53;100.00;95473.25;5051074;28;20197;-74
2021/11/03 02:25:47;;;;;;;1999.90;999.90;;;;;;;5.49;100.00;95474.03;5050696;28;20261;-74
2021/11/03 02:28:17;;;;;;;1999.90;999.90;;;;;;;5.51;100.00;95475.34;5050378;28;20213;-74
2021/11/03 02:30:44;;;;;;;1999.90;999.90;;;;;;;5.42;100.00;95473.56;5050640;28;20207;-74
2021/11/03 02:33:16;;;;;;;1999.90;999.90;;;;;;;5.41;100.00;95474.59;5050626;28;20258;-75
2021/11/03 02:35:50;;;;;;;1999.90;999.90;;;;;;;5.35;100.00;95481.53;5050888;28;20177;-75
2021/11/03 02:38:28;;;;;;;1999.90;999.90;;;;;;;5.46;100.00;95479.72;5050809;28;20704;-75
2021/11/03 02:41:03;;;;;;;1999.90;999.90;;;;;;;5.51;100.00;95467.59;5050517;28;20189;-74
2021/11/03 02:43:36;;;;;;;1999.90;999.90;;;;;;;5.52;100.00;95471.72;5050839;28;20185;-75
2021/11/03 02:46:04;;;;;;;1999.90;999.90;;;;;;;5.50;100.00;95484.09;5050965;28;20213;-74
2021/11/03 02:48:33;;;;;;;1999.90;999.90;;;;;;;5.50;100.00;95486.66;5050361;28;20263;-75
2021/11/03 02:51:06;;;;;;;1999.90;999.90;;;;;;;5.43;100.00;95480.25;5050478;28;20193;-75
2021/11/03 02:53:35;;;;;;;1999.90;999.90;;;;;;;5.48;100.00;95475.09;5050698;28;20642;-75
2021/11/03 02:56:05;;;;;;;1999.90;999.90;;;;;;;5.70;100.00;95478.13;5050520;28;20586;-75
2021/11/03 02:58:34;;;;;;;1999.90;999.90;;;;;;;5.57;100.00;95483.84;5050468;28;20254;-74
2021/11/03 03:01:11;;;;;;;1999.90;999.90;;;;;;;5.42;100.00;95489.78;5050078;28;20199;-74
2021/11/03 03:03:38;;;;;;;1999.90;999.90;;;;;;;5.19;100.00;95501.38;5050193;28;20185;-75
2021/11/03 03:06:10;;;;;;;1999.90;999.90;;;;;;;5.11;100.00;95499.34;5050273;28;20320;-75
2021/11/03 03:08:37;;;;;;;1999.90;999.90;;;;;;;5.04;100.00;95501.38;5050113;28;20657;-74
2021/11/03 03:11:06;;;;;;;1999.90;999.90;;;;;;;5.05;100.00;95508.09;5050120;28;20200;-73
2021/11/03 03:13:34;;;;;;;1999.90;999.90;;;;;;;5.02;100.00;95516.34;5050297;28;20271;-74
2021/11/03 03:16:01;;;;;;;1999.90;999.90;;;;;;;5.12;100.00;95520.72;5050213;28;20193;-74
2021/11/03 03:18:28;;;;;;;1999.90;999.90;;;;;;;5.09;100.00;95521.22;5050267;28;20201;-74
2021/11/03 03:20:55;;;;;;;1999.90;999.90;;;;;;;5.13;100.00;95525.59;5049888;28;20677;-74
2021/11/03 03:23:22;;;;;;;1999.90;999.90;;;;;;;5.20;100.00;95520.97;5049846;28;20254;-74
2021/11/03 03:25:53;;;;;;;1999.90;999.90;;;;;;;5.23;100.00;95529.97;5049992;28;20251;-74
2021/11/03 03:28:21;;;;;;;1999.90;999.90;;;;;;;5.25;100.00;95522.00;5049806;28;20620;-74
2021/11/03 03:30:49;;;;;;;1999.90;999.90;;;;;;;5.32;100.00;95525.09;5050116;28;20235;-74
2021/11/03 03:33:16;;;;;;;1999.90;999.90;;;;;;;5.39;100.00;95530.75;5050034;28;20636;-74
2021/11/03 03:35:43;;;;;;;1999.90;999.90;;;;;;;5.38;100.00;95544.69;5050070;28;20197;-74
2021/11/03 03:38:10;;;;;;;1999.90;999.90;;;;;;;5.40;100.00;95547.75;5050012;28;20229;-74
2021/11/03 03:40:37;;;;;;;1999.90;999.90;;;;;;;5.39;100.00;95549.56;5051200;28;20235;-74
2021/11/03 03:43:04;;;;;;;1999.90;999.90;;;;;;;5.50;100.00;95553.69;5053893;28;20209;-74
2021/11/03 03:45:33;;;;;;;1999.90;999.90;;;;;;;5.66;100.00;95548.50;5053614;28;20217;-75
2021/11/03 03:48:00;;;;;;;1999.90;999.90;;;;;;;5.66;100.00;95548.50;5053705;28;20608;-75
2021/11/03 03:50:27;;;;;;;1999.90;999.90;;;;;;;5.66;100.00;95549.28;5054037;28;20227;-74
2021/11/03 03:52:54;;;;;;;1999.90;999.90;;;;;;;5.71;100.00;95553.66;5053991;28;20673;-74
2021/11/03 03:55:21;;;;;;;1999.90;999.90;;;;;;;5.62;100.00;95563.72;5053888;28;20223;-74
2021/11/03 03:57:48;;;;;;;1999.90;999.90;;;;;;;5.61;100.00;95562.94;5053596;28;20758;-75
2021/11/03 04:00:20;;;;;;;1999.90;999.90;;;;;;;5.64;100.00;95559.06;5053608;28;20282;-74
2021/11/03 04:02:50;;;;;;;1999.90;999.90;;;;;;;5.61;100.00;95557.03;5053525;28;20196;-75
2021/11/03 04:05:18;;;;;;;1999.90;999.90;;;;;;;5.61;100.00;95559.59;5053410;28;20209;-75
2021/11/03 04:07:45;;;;;;;1999.90;999.90;;;;;;;5.57;100.00;95559.34;5053623;28;20197;-75
2021/11/03 04:10:14;;;;;;;1999.90;999.90;;;;;;;5.53;100.00;95563.44;5053374;28;20198;-74
2021/11/03 04:12:41;;;;;;;1999.90;999.90;;;;;;;5.57;100.00;95574.81;5053006;28;20228;-75
2021/11/03 04:15:10;;;;;;;1999.90;999.90;;;;;;;5.56;100.00;95580.22;5053487;28;20271;-74
2021/11/03 04:17:37;;;;;;;1999.90;999.90;;;;;;;5.63;100.00;95580.72;5053214;28;20201;-74
2021/11/03 04:20:08;;;;;;;1999.90;999.90;;;;;;;5.67;100.00;95575.84;5053141;28;20209;-74
2021/11/03 04:22:35;;;;;;;1999.90;999.90;;;;;;;5.62;100.00;95574.03;5052863;28;20232;-75
2021/11/03 04:25:02;;;;;;;1999.90;999.90;;;;;;;5.52;100.00;95579.19;5053101;28;20729;-75
2021/11/03 04:27:29;;;;;;;1999.90;999.90;;;;;;;5.58;100.00;95578.13;5053086;28;20771;-74
2021/11/03 04:29:56;;;;;;;1999.90;999.90;;;;;;;5.59;100.00;95574.53;5053193;28;20665;-75
2021/11/03 04:32:24;;;;;;;1999.90;999.90;;;;;;;5.67;100.00;95568.09;5053236;28;20203;-75
2021/11/03 04:34:51;;;;;;;1999.90;999.90;;;;;;;5.68;100.00;95565.25;5052882;28;20231;-74
2021/11/03 04:37:19;;;;;;;1999.90;999.90;;;;;;;5.72;100.00;95568.88;5052804;28;20201;-74
2021/11/03 04:39:46;;;;;;;1999.90;999.90;;;;;;;5.68;100.00;95575.56;5053086;28;20197;-74
2021/11/03 04:42:13;;;;;;;1999.90;999.90;;;;;;;5.70;100.00;95581.22;5053056;28;20309;-74
2021/11/03 04:44:41;;;;;;;1999.90;999.90;;;;;;;5.70;100.00;95588.97;5052929;28;20193;-74
2021/11/03 04:47:09;;;;;;;1999.90;999.90;;;;;;;5.69;100.00;95584.06;5052844;28;20194;-74
2021/11/03 04:49:36;;;;;;;1999.90;999.90;;;;;;;5.62;100.00;95589.50;5052586;28;20268;-74
2021/11/03 04:52:04;;;;;;;1999.90;999.90;;;;;;;5.56;100.00;95600.84;5052102;28;20705;-74
2021/11/03 04:54:32;;;;;;;1999.90;999.90;;;;;;;5.62;100.00;95597.22;5052876;28;20585;-74
2021/11/03 04:56:59;;;;;;;1999.90;999.90;;;;;;;5.69;100.00;95591.78;5052489;28;20231;-74
2021/11/03 04:59:27;;;;;;;1999.90;999.90;;;;;;;5.66;100.00;95594.91;5052814;28;20262;-74
2021/11/03 05:01:54;;;;;;;1999.90;999.90;;;;;;;5.70;100.00;95598.50;5052381;28;20198;-74
2021/11/03 05:04:21;;;;;;;1999.90;999.90;;;;;;;5.75;100.00;95588.19;5052624;28;20201;-74
2021/11/03 05:06:48;;;;;;;1999.90;999.90;;;;;;;5.77;100.00;95597.22;5052418;28;20221;-74
2021/11/03 05:09:17;;;;;;;1999.90;999.90;;;;;;;5.72;100.00;95591.28;5052363;28;20197;-74
2021/11/03 05:11:46;;;;;;;1999.90;999.90;;;;;;;5.77;100.00;95602.38;5051955;28;20232;-74
2021/11/03 05:14:13;;;;;;;1999.90;999.90;;;;;;;5.85;100.00;95606.22;5052457;28;20197;-74
2021/11/03 05:16:40;;;;;;;1999.90;999.90;;;;;;;5.87;100.00;95596.47;5052372;28;20661;-74
2021/11/03 05:19:07;;;;;;;1999.90;999.90;;;;;;;5.87;100.00;95604.19;5052101;28;20203;-74
2021/11/03 05:21:40;;;;;;;1999.90;999.90;;;;;;;5.85;100.00;95614.75;5052268;28;20216;-74
2021/11/03 05:24:08;;;;;;;1999.90;999.90;;;;;;;5.83;100.00;95616.78;5051483;28;20731;-74
2021/11/03 05:26:35;;;;;;;1999.90;999.90;;;;;;;5.78;100.00;95618.63;5052128;28;20712;-74
2021/11/03 05:29:04;;;;;;;1999.90;999.90;;;;;;;5.79;100.00;95620.94;5051759;28;20204;-74
2021/11/03 05:31:32;;;;;;;1999.90;999.90;;;;;;;5.78;100.00;95616.78;5051861;28;20269;-74
2021/11/03 05:33:59;;;;;;;1999.90;999.90;;;;;;;5.78;100.00;95616.03;5052046;28;20251;-74
2021/11/03 05:36:29;;;;;;;1999.90;999.90;;;;;;;5.90;100.00;95611.41;5051576;28;20256;-74
2021/11/03 05:38:57;;;;;;;1999.90;999.90;;;;;;;5.95;100.00;95608.81;5051730;28;20209;-74
2021/11/03 05:41:24;;;;;;;1999.90;999.90;;;;;;;6.03;100.00;95611.63;5051911;28;20212;-74
2021/11/03 05:43:52;;;;;;;1999.90;999.90;;;;;;;6.02;100.00;95604.94;5051614;28;20334;-74
2021/11/03 05:46:33;;;;;;;1999.90;999.90;;;;;;;6.05;100.00;95608.78;5051535;28;20221;-74
2021/11/03 05:49:05;;;;;;;1999.90;999.90;;;;;;;5.99;100.00;95620.16;5051455;28;20224;-74
2021/11/03 05:51:33;;;;;;;1999.90;999.90;;;;;;;5.96;100.00;95631.78;5051371;28;20189;-74
2021/11/03 05:54:00;;;;;;;1999.90;999.90;;;;;;;6.01;100.00;95649.06;5051334;28;20232;-74
2021/11/03 05:56:27;;;;;;;1999.90;999.90;;;;;;;6.00;100.00;95656.00;5051644;28;20220;-75
2021/11/03 05:58:54;;;;;;;1999.90;999.90;;;;;;;6.02;100.00;95661.69;5051238;28;20197;-74
2021/11/03 06:01:22;;;;;;;1999.90;999.90;;;;;;;5.98;100.00;95654.72;5051258;28;20670;-74
2021/11/03 06:03:52;;;;;;;1999.90;999.90;;;;;;;5.95;100.00;95650.84;5050198;28;20202;-74
2021/11/03 06:06:20;;;;;;;1999.90;999.90;;;;;;;5.85;100.00;95644.91;5051193;28;20225;-74
2021/11/03 06:08:48;;;;;;;1999.90;999.90;;;;;;;5.97;100.00;95653.97;5051272;28;20695;-74
2021/11/03 06:11:19;;;;;;;1999.90;999.90;;;;;;;5.99;100.00;95651.09;5050543;28;20207;-74
2021/11/03 06:13:46;;;;;;;1999.90;999.90;;;;;;;5.98;100.00;95649.56;5050751;28;20299;-74
2021/11/03 06:16:14;;;;;;;1999.90;999.90;;;;;;;5.96;100.00;95656.78;5050812;28;20266;-74
2021/11/03 06:18:43;;;;;;;1999.90;999.90;;;;;;;6.11;100.00;95667.09;5051081;28;20201;-74
2021/11/03 06:21:11;;;;;;;1999.90;999.90;;;;;;;6.19;100.00;95673.53;5050520;28;20204;-74
2021/11/03 06:23:38;;;;;;;1999.90;999.90;;;;;;;6.18;100.00;95677.91;5050716;28;20208;-74
2021/11/03 06:26:05;;;;;;;1999.90;999.90;;;;;;;6.32;100.00;95686.69;5050254;28;20274;-74
2021/11/03 06:28:32;;;;;;;1999.90;999.90;;;;;;;6.33;100.00;95679.69;5050344;28;20298;-74
2021/11/03 06:30:59;;;;;;;1999.90;999.90;;;;;;;6.51;100.00;95673.97;5050411;28;20203;-74
2021/11/03 06:33:26;;;;;;;1999.90;999.90;;;;;;;6.53;100.00;95661.56;5050681;28;20205;-74
2021/11/03 06:35:57;;;;;;;1999.90;999.90;;;;;;;6.42;100.00;95670.41;5050587;28;20216;-74
2021/11/03 06:38:24;;;;;;;1999.90;999.90;;;;;;;6.45;100.00;95680.19;5050266;28;20276;-74
2021/11/03 06:40:52;;;;;;;1999.90;999.90;;;;;;;6.66;100.00;95689.44;5050228;28;20237;-74
2021/11/03 06:43:19;;;;;;;1999.90;999.90;;;;;;;6.35;100.00;95690.53;5050084;28;20250;-74
2021/11/03 06:45:46;;;;;;;1999.90;999.90;;;;;;;6.20;100.00;95693.13;5049993;28;20303;-74
2021/11/03 06:48:13;;;;;;;1999.90;999.90;;;;;;;6.28;100.00;95701.13;5050129;28;20279;-74
2021/11/03 06:50:41;;;;;;;1999.90;999.90;;;;;;;6.19;100.00;95691.56;5050264;28;20193;-74
2021/11/03 06:53:15;;;;;;;1999.90;999.90;;;;;;;6.17;100.00;95693.66;5050123;28;20197;-74
2021/11/03 06:55:43;;;;;;;1999.90;999.90;;;;;;;6.25;100.00;95706.03;5049473;28;20734;-74
2021/11/03 06:58:11;;;;;;;1999.90;999.90;;;;;;;6.23;100.00;95708.84;5049927;28;20288;-74
2021/11/03 07:00:40;;;;;;;1999.90;999.90;;;;;;;6.27;100.00;95702.16;5050044;28;20197;-74
2021/11/03 07:03:07;;;;;;;1999.90;999.90;;;;;;;6.45;100.00;95703.41;5050223;28;20205;-74
2021/11/03 07:05:36;;;;;;;1999.90;999.90;;;;;;;6.45;100.00;95693.88;5049798;28;20197;-72
2021/11/03 07:08:04;;;;;;;1999.90;999.90;;;;;;;6.57;100.00;95703.91;5049919;28;20701;-74
2021/11/03 07:10:36;;;;;;;1999.90;999.90;;;;;;;6.61;100.00;95710.09;5049848;28;20197;-74
2021/11/03 07:13:03;;;;;;;1999.90;999.90;;;;;;;6.56;100.00;95706.75;5049815;28;20786;-74
2021/11/03 07:15:31;;;;;;;1999.90;999.90;;;;;;;6.62;100.00;95708.28;5049700;28;20207;-74
2021/11/03 07:17:59;;;;;;;1999.90;999.90;;;;;;;6.77;100.00;95709.03;5050076;28;21068;-74
2021/11/03 07:20:26;;;;;;;1999.90;999.90;;;;;;;6.77;100.00;95701.28;5049951;28;20201;-74
2021/11/03 07:22:54;;;;;;;1999.90;999.90;;;;;;;6.87;100.00;95708.97;5050263;28;20209;-74
2021/11/03 07:25:24;;;;;;;1999.90;999.90;;;;;;;6.95;100.00;95715.41;5050163;28;20233;-74
2021/11/03 07:27:54;;;;;;;1999.90;999.90;;;;;;;7.11;100.00;95721.28;5050126;28;20196;-74
2021/11/03 07:30:23;;;;;;;1999.90;999.90;;;;;;;6.96;100.00;95726.53;5050006;28;20196;-74
2021/11/03 07:32:50;;;;;;;1999.90;999.90;;;;;;;7.02;100.00;95735.81;5049778;28;20202;-74
2021/11/03 07:35:18;;;;;;;1999.90;999.90;;;;;;;7.20;100.00;95733.41;5049821;28;20277;-74
2021/11/03 07:37:46;;;;;;;1999.90;999.90;;;;;;;7.06;100.00;95739.41;5049739;28;20197;-75
2021/11/03 07:40:17;;;;;;;1999.90;999.90;;;;;;;7.07;100.00;95748.69;5049742;28;20240;-74
2021/11/03 07:42:44;;;;;;;1999.90;999.90;;;;;;;7.26;100.00;95736.72;5049845;28;20653;-74
2021/11/03 07:45:13;;;;;;;1999.90;999.90;;;;;;;7.27;100.00;95749.38;5049654;28;20201;-75
2021/11/03 07:47:41;;;;;;;1999.90;999.90;;;;;;;7.31;100.00;95757.38;5049625;28;20234;-75
2021/11/03 07:50:15;;;;;;;1999.90;999.90;;;;;;;7.32;100.00;95759.69;5050213;28;20199;-74
2021/11/03 07:52:42;;;;;;;1999.90;999.90;;;;;;;7.51;100.00;95762.47;5049910;28;20255;-74
2021/11/03 07:55:09;;;;;;;1999.90;999.90;;;;;;;7.43;100.00;95764.81;5049908;28;20204;-74
2021/11/03 07:57:37;;;;;;;1999.90;999.90;;;;;;;7.44;100.00;95763.78;5049642;28;20197;-74
2021/11/03 08:00:05;;;;;;;1999.90;999.90;;;;;;;7.55;100.00;95752.34;5049512;28;20201;-75
2021/11/03 08:02:33;;;;;;;1999.90;999.90;;;;;;;7.72;100.00;95742.44;5049734;28;20200;-74
2021/11/03 08:05:01;;;;;;;1999.90;999.90;;;;;;;7.74;100.00;95738.53;5049536;28;20197;-74
2021/11/03 08:07:28;;;;;;;1999.90;999.90;;;;;;;7.79;100.00;95746.25;5049618;28;20263;-75
2021/11/03 08:09:57;;;;;;;1999.90;999.90;;;;;;;7.83;100.00;95746.47;5049859;28;20205;-74
2021/11/03 08:12:24;;;;;;;1999.90;999.90;;;;;;;7.76;100.00;95738.25;5049357;28;20993;-74
2021/11/03 08:14:51;;;;;;;1999.90;999.90;;;;;;;7.77;100.00;95727.63;5049376;28;20262;-74
2021/11/03 08:17:22;;;;;;;1999.90;999.90;;;;;;;7.85;100.00;95730.69;5049994;28;20197;-74
2021/11/03 08:19:56;;;;;;;1999.90;999.90;;;;;;;7.85;100.00;95736.66;5049975;28;20593;-74
2021/11/03 08:22:24;;;;;;;1999.90;999.90;;;;;;;7.78;100.00;95731.00;5049407;28;20727;-74
2021/11/03 08:24:52;;;;;;;1999.90;999.90;;;;;;;7.78;100.00;95724.00;5049660;28;20207;-75
2021/11/03 08:27:22;;;;;;;1999.90;999.90;;;;;;;7.82;100.00;95718.31;5051683;28;20620;-74
2021/11/03 08:29:49;;;;;;;1999.90;999.90;;;;;;;7.79;100.00;95715.22;5052968;28;20213;-74
2021/11/03 08:32:20;;;;;;;1999.90;999.90;;;;;;;7.73;100.00;95716.28;5052873;28;20193;-75
2021/11/03 08:34:49;;;;;;;1999.90;999.90;;;;;;;7.84;100.00;95711.03;5053314;28;20212;-74
2021/11/03 08:37:21;;;;;;;1999.90;999.90;;;;;;;7.88;100.00;95718.00;5053074;28;20225;-74
2021/11/03 08:39:52;;;;;;;1999.90;999.90;;;;;;;7.78;100.00;95718.84;5053200;28;20189;-74
2021/11/03 08:42:20;;;;;;;1999.90;999.90;;;;;;;7.88;100.00;95717.22;5052748;28;20194;-74
2021/11/03 08:44:47;;;;;;;1999.90;999.90;;;;;;;8.11;100.00;95711.34;5053055;28;20197;-74
2021/11/03 08:47:15;;;;;;;1999.90;999.90;;;;;;;8.02;100.00;95716.31;5052931;28;20225;-75
2021/11/03 08:49:42;;;;;;;1999.90;999.90;;;;;;;8.13;100.00;95719.59;5052581;28;20630;-75
2021/11/03 08:52:09;;;;;;;1999.90;999.90;;;;;;;8.15;100.00;95726.06;5052650;28;20197;-74
2021/11/03 08:54:39;;;;;;;1999.90;999.90;;;;;;;8.33;100.00;95723.84;5052682;28;20197;-74
2021/11/03 08:57:07;;;;;;;1999.90;999.90;;;;;;;8.32;100.00;95728.25;5052660;28;20641;-75
2021/11/03 08:59:34;;;;;;;1999.90;999.90;;;;;;;8.28;100.00;95722.06;5052447;28;20588;-74
2021/11/03 09:02:03;;;;;;;1999.90;999.90;;;;;;;8.06;100.00;95732.09;5052172;28;20246;-74
2021/11/03 09:04:30;;;;;;;1999.90;999.90;;;;;;;7.98;100.00;95730.84;5052380;28;20212;-74
2021/11/03 09:06:57;;;;;;;1999.90;999.90;;;;;;;8.20;100.00;95722.66;5052120;28;20221;-75
2021/11/03 09:09:24;;;;;;;1999.90;999.90;;;;;;;8.17;100.00;95720.59;5052306;28;20208;-74
2021/11/03 09:11:53;;;;;;;1999.90;999.90;;;;;;;8.13;100.00;95715.19;5052076;28;20260;-74
2021/11/03 09:14:21;;;;;;;1999.90;999.90;;;;;;;8.29;100.00;95722.84;5052133;28;20201;-74
2021/11/03 09:16:48;;;;;;;1999.90;999.90;;;;;;;8.55;100.00;95731.97;5052319;28;20267;-74
2021/11/03 09:19:15;;;;;;;1999.90;999.90;;;;;;;8.48;100.00;95736.66;5052120;28;20232;-74
2021/11/03 09:21:43;;;;;;;1999.90;999.90;;;;;;;8.59;100.00;95723.34;5051980;28;20267;-75
2021/11/03 09:24:10;;;;;;;1999.90;999.90;;;;;;;8.59;100.00;95722.59;5051955;28;20772;-74
2021/11/03 09:26:37;;;;;;;1999.90;999.90;;;;;;;8.81;100.00;95719.53;5051735;28;20709;-74
2021/11/03 09:29:05;;;;;;;1999.90;999.90;;;;;;;8.84;100.00;95716.38;5052201;28;20205;-75
2021/11/03 09:31:33;;;;;;;1999.90;999.90;;;;;;;8.88;100.00;95709.56;5051639;28;20223;-75
2021/11/03 09:34:01;;;;;;;1999.90;999.90;;;;;;;8.66;100.00;95723.03;5051877;28;20215;-75
2021/11/03 09:36:29;;;;;;;1999.90;999.90;;;;;;;8.70;100.00;95712.91;5052009;28;20673;-74
2021/11/03 09:38:57;;;;;;;1999.90;999.90;;;;;;;8.63;100.00;95719.16;5051757;28;20230;-74
2021/11/03 09:41:27;;;;;;;1999.90;999.90;;;;;;;8.78;100.00;95710.47;5051718;28;20284;-75
2021/11/03 09:43:58;;;;;;;1999.90;999.90;;;;;;;8.67;100.00;95705.69;5051483;28;20204;-74
2021/11/03 09:46:31;;;;;;;1999.90;999.90;;;;;;;8.58;100.00;95701.09;5051513;28;20185;-74
2021/11/03 09:49:05;;;;;;;1999.90;999.90;;;;;;;8.51;100.00;95702.47;5051619;28;20185;-74
2021/11/03 09:51:33;;;;;;;1999.90;999.90;;;;;;;8.73;100.00;95691.59;5051587;28;20180;-75
2021/11/03 09:54:02;;;;;;;1999.90;999.90;;;;;;;8.79;100.00;95682.75;5051673;28;20197;-74
2021/11/03 09:56:38;;;;;;;1999.90;999.90;;;;;;;8.80;100.00;95682.47;5051458;28;20568;-74
2021/11/03 09:59:30;;;;;;;1999.90;999.90;;;;;;;8.89;100.00;95675.63;5051614;28;20239;-75
2021/11/03 10:02:12;;;;;;;1999.90;999.90;;;;;;;8.85;100.00;95668.69;5047687;28;20263;-74
2021/11/03 10:04:57;;;;;;;1999.90;999.90;;;;;;;8.84;100.00;95659.34;5051466;28;20224;-74
2021/11/03 10:07:38;;;;;;;1999.90;999.90;;;;;;;8.70;100.00;95663.66;5051302;28;20742;-74
2021/11/03 10:10:12;;;;;;;1999.90;999.90;;;;;;;8.76;100.00;95645.22;5051211;28;20272;-74
2021/11/03 10:12:39;;;;;;;1999.90;999.90;;;;;;;8.81;100.00;95647.75;5050812;28;20257;-74
2021/11/03 10:15:07;;;;;;;1999.90;999.90;;;;;;;8.95;100.00;95648.59;5051160;28;20201;-74
2021/11/03 10:17:35;;;;;;;1999.90;999.90;;;;;;;9.02;100.00;95653.41;5051102;28;20676;-75
2021/11/03 10:20:30;;;;;;;1999.90;999.90;;;;;;;8.95;100.00;95653.00;5049135;28;20251;-75
2021/11/03 10:23:09;;;;;;;1999.90;999.90;;;;;;;8.95;100.00;95647.81;5050797;28;20204;-74
2021/11/03 10:25:36;;;;;;;1999.90;999.90;;;;;;;9.09;100.00;95643.50;5050909;28;20239;-75
2021/11/03 10:28:03;;;;;;;1999.90;999.90;;;;;;;9.18;100.00;95631.44;5050849;28;20228;-74
2021/11/03 10:30:38;;;;;;;1999.90;999.90;;;;;;;9.06;100.00;95636.28;5050923;28;20196;-75
2021/11/03 10:33:17;;;;;;;1999.90;999.90;;;;;;;9.13;100.00;95633.31;5050652;28;20618;-75
2021/11/03 10:35:56;;;;;;;1999.90;999.90;;;;;;;9.24;100.00;95643.28;5050941;28;20181;-74
2021/11/03 10:38:26;;;;;;;1999.90;999.90;;;;;;;9.30;100.00;95644.75;5050460;28;20268;-74
2021/11/03 10:40:58;;;;;;;1999.90;999.90;;;;;;;9.42;100.00;95641.72;5050499;28;20247;-75
2021/11/03 10:43:30;;;;;;;1999.90;999.90;;;;;;;9.57;100.00;95640.72;5050811;28;20216;-74
2021/11/03 10:46:02;;;;;;;1999.90;999.90;;;;;;;9.66;100.00;95644.25;5050840;28;20271;-74
2021/11/03 10:48:31;;;;;;;1999.90;999.90;;;;;;;9.65;100.00;95655.69;5049984;28;20244;-74
2021/11/03 10:51:04;;;;;;;1999.90;999.90;;;;;;;9.68;100.00;95649.91;5050356;28;20284;-73
2021/11/03 10:53:45;;;;;;;1999.90;999.90;;;;;;;9.63;100.00;95649.97;5050300;28;20186;-74
2021/11/03 10:56:18;;;;;;;1999.90;999.90;;;;;;;9.49;100.00;95637.75;5050543;28;20262;-74
2021/11/03 10:58:56;;;;;;;1999.90;999.90;;;;;;;9.46;100.00;95637.53;5050446;28;20177;-74
2021/11/03 11:01:29;;;;;;;1999.90;999.90;;;;;;;9.50;100.00;95634.09;5050479;28;20620;-75
2021/11/03 11:04:02;;;;;;;1999.90;999.90;;;;;;;9.73;100.00;95642.03;5050443;28;20554;-73